Terminal Aerodrome Forecast
Issued by NWS

Home | Current Version | Previous Version | Text Only | Print | Product List | Glossary On
Versions: 1 2 3 4 5 6 7 8 9 10 11 12 13 14 15 16 17 18 19 20 21 22 23 24 25 26 27 28
000
FTUS46 KSEW 231700
TAFSEA
TAF
KSEA 231728Z 2318/2424 21006KT P6SM -RA SCT005 BKN012 OVC040
      TEMPO 2318/2321 2SM -RA BR BKN005 OVC035
     FM232100 22007KT P6SM -SHRA VCTS SCT015 BKN025CB OVC045
     FM240300 20008KT P6SM VCSH SCT015 BKN025=

USA.gov is the U.S. government's official web portal to all federal, state and local government web resources and services.